sensor_id;sensor_type;location;lat;lon;timestamp;P1;durP1;ratioP1;P2;durP2;ratioP2
77724;SDS011;66892;53.236;6.550;2023-04-24T00:01:56;10.95;;;4.72;;
77724;SDS011;66892;53.236;6.550;2023-04-24T00:04:23;12.68;;;5.50;;
77724;SDS011;66892;53.236;6.550;2023-04-24T00:06:51;11.02;;;4.95;;
77724;SDS011;66892;53.236;6.550;2023-04-24T00:09:22;11.32;;;4.50;;
77724;SDS011;66892;53.236;6.550;2023-04-24T00:11:50;9.95;;;4.80;;
77724;SDS011;66892;53.236;6.550;2023-04-24T00:14:16;10.52;;;4.85;;
77724;SDS011;66892;53.236;6.550;2023-04-24T00:16:42;10.90;;;4.90;;
77724;SDS011;66892;53.236;6.550;2023-04-24T00:19:08;12.57;;;6.22;;
77724;SDS011;66892;53.236;6.550;2023-04-24T00:21:34;16.63;;;7.88;;
77724;SDS011;66892;53.236;6.550;2023-04-24T00:24:00;16.80;;;7.57;;
77724;SDS011;66892;53.236;6.550;2023-04-24T00:26:26;19.77;;;9.13;;
77724;SDS011;66892;53.236;6.550;2023-04-24T00:28:54;19.30;;;8.10;;
77724;SDS011;66892;53.236;6.550;2023-04-24T00:31:20;22.52;;;9.07;;
77724;SDS011;66892;53.236;6.550;2023-04-24T00:33:46;20.33;;;9.18;;
77724;SDS011;66892;53.236;6.550;2023-04-24T00:36:12;23.88;;;9.02;;
77724;SDS011;66892;53.236;6.550;2023-04-24T00:38:38;19.45;;;7.97;;
77724;SDS011;66892;53.236;6.550;2023-04-24T00:41:04;16.67;;;6.85;;
77724;SDS011;66892;53.236;6.550;2023-04-24T00:43:30;14.20;;;6.65;;
77724;SDS011;66892;53.236;6.550;2023-04-24T00:45:58;12.90;;;6.18;;
77724;SDS011;66892;53.236;6.550;2023-04-24T00:48:26;11.80;;;5.43;;
77724;SDS011;66892;53.236;6.550;2023-04-24T00:50:53;11.02;;;4.93;;
77724;SDS011;66892;53.236;6.550;2023-04-24T00:53:19;10.18;;;3.95;;
77724;SDS011;66892;53.236;6.550;2023-04-24T00:55:46;9.75;;;4.03;;
77724;SDS011;66892;53.236;6.550;2023-04-24T00:58:12;7.85;;;3.45;;
77724;SDS011;66892;53.236;6.550;2023-04-24T01:00:38;7.65;;;3.83;;
77724;SDS011;66892;53.236;6.550;2023-04-24T01:03:06;5.88;;;2.60;;
77724;SDS011;66892;53.236;6.550;2023-04-24T01:05:32;6.30;;;2.63;;
77724;SDS011;66892;53.236;6.550;2023-04-24T01:07:59;4.78;;;2.38;;
77724;SDS011;66892;53.236;6.550;2023-04-24T01:10:25;5.38;;;2.20;;
77724;SDS011;66892;53.236;6.550;2023-04-24T01:12:55;6.00;;;2.28;;
77724;SDS011;66892;53.236;6.550;2023-04-24T01:15:21;5.65;;;2.30;;
77724;SDS011;66892;53.236;6.550;2023-04-24T01:17:47;4.80;;;2.00;;
77724;SDS011;66892;53.236;6.550;2023-04-24T01:20:14;5.35;;;2.47;;
77724;SDS011;66892;53.236;6.550;2023-04-24T01:22:42;5.85;;;2.40;;
77724;SDS011;66892;53.236;6.550;2023-04-24T01:25:08;4.65;;;1.95;;
77724;SDS011;66892;53.236;6.550;2023-04-24T01:27:35;5.82;;;2.35;;
77724;SDS011;66892;53.236;6.550;2023-04-24T01:30:01;5.78;;;2.22;;
77724;SDS011;66892;53.236;6.550;2023-04-24T01:32:27;5.35;;;2.28;;
77724;SDS011;66892;53.236;6.550;2023-04-24T01:34:53;4.93;;;2.03;;
77724;SDS011;66892;53.236;6.550;2023-04-24T01:37:20;5.13;;;2.22;;
77724;SDS011;66892;53.236;6.550;2023-04-24T01:39:48;4.70;;;2.30;;
77724;SDS011;66892;53.236;6.550;2023-04-24T01:42:14;5.45;;;2.35;;
77724;SDS011;66892;53.236;6.550;2023-04-24T01:44:40;4.95;;;2.30;;
77724;SDS011;66892;53.236;6.550;2023-04-24T01:47:07;5.10;;;2.28;;
77724;SDS011;66892;53.236;6.550;2023-04-24T01:49:33;6.20;;;2.30;;
77724;SDS011;66892;53.236;6.550;2023-04-24T01:52:00;5.82;;;2.55;;
77724;SDS011;66892;53.236;6.550;2023-04-24T01:54:26;6.15;;;2.47;;
77724;SDS011;66892;53.236;6.550;2023-04-24T01:56:53;6.90;;;3.10;;
77724;SDS011;66892;53.236;6.550;2023-04-24T01:59:19;5.15;;;2.63;;
77724;SDS011;66892;53.236;6.550;2023-04-24T02:01:47;5.50;;;2.58;;
77724;SDS011;66892;53.236;6.550;2023-04-24T02:04:13;6.18;;;2.85;;
77724;SDS011;66892;53.236;6.550;2023-04-24T02:06:40;6.00;;;2.70;;
77724;SDS011;66892;53.236;6.550;2023-04-24T02:09:06;6.90;;;3.42;;
77724;SDS011;66892;53.236;6.550;2023-04-24T02:11:33;5.72;;;2.70;;
77724;SDS011;66892;53.236;6.550;2023-04-24T02:14:00;8.27;;;3.33;;
77724;SDS011;66892;53.236;6.550;2023-04-24T02:16:27;6.88;;;3.22;;
77724;SDS011;66892;53.236;6.550;2023-04-24T02:18:55;7.32;;;3.67;;
77724;SDS011;66892;53.236;6.550;2023-04-24T02:21:21;8.60;;;3.35;;
77724;SDS011;66892;53.236;6.550;2023-04-24T02:23:47;8.35;;;3.63;;
77724;SDS011;66892;53.236;6.550;2023-04-24T02:26:13;8.65;;;3.80;;
77724;SDS011;66892;53.236;6.550;2023-04-24T02:28:39;11.00;;;4.15;;
77724;SDS011;66892;53.236;6.550;2023-04-24T02:31:07;9.93;;;4.32;;
77724;SDS011;66892;53.236;6.550;2023-04-24T02:33:33;9.23;;;3.95;;
77724;SDS011;66892;53.236;6.550;2023-04-24T02:35:59;10.50;;;4.53;;
77724;SDS011;66892;53.236;6.550;2023-04-24T02:38:25;8.93;;;4.18;;
77724;SDS011;66892;53.236;6.550;2023-04-24T02:40:51;10.93;;;4.53;;
77724;SDS011;66892;53.236;6.550;2023-04-24T02:43:17;10.05;;;4.80;;
77724;SDS011;66892;53.236;6.550;2023-04-24T02:45:43;11.40;;;4.78;;
77724;SDS011;66892;53.236;6.550;2023-04-24T02:48:11;10.43;;;5.10;;
77724;SDS011;66892;53.236;6.550;2023-04-24T02:50:37;10.20;;;4.93;;
77724;SDS011;66892;53.236;6.550;2023-04-24T02:53:03;10.95;;;5.07;;
77724;SDS011;66892;53.236;6.550;2023-04-24T02:55:29;10.25;;;4.70;;
77724;SDS011;66892;53.236;6.550;2023-04-24T02:57:55;11.40;;;5.03;;
77724;SDS011;66892;53.236;6.550;2023-04-24T03:00:21;14.18;;;5.55;;
77724;SDS011;66892;53.236;6.550;2023-04-24T03:02:47;11.00;;;4.97;;
77724;SDS011;66892;53.236;6.550;2023-04-24T03:05:16;13.93;;;5.63;;
77724;SDS011;66892;53.236;6.550;2023-04-24T03:07:42;14.05;;;5.40;;
77724;SDS011;66892;53.236;6.550;2023-04-24T03:10:08;12.73;;;5.57;;
77724;SDS011;66892;53.236;6.550;2023-04-24T03:12:35;15.13;;;6.03;;
77724;SDS011;66892;53.236;6.550;2023-04-24T03:15:01;14.68;;;5.72;;
77724;SDS011;66892;53.236;6.550;2023-04-24T03:17:26;13.68;;;5.90;;
77724;SDS011;66892;53.236;6.550;2023-04-24T03:19:52;15.40;;;6.22;;
77724;SDS011;66892;53.236;6.550;2023-04-24T03:22:20;15.27;;;6.28;;
77724;SDS011;66892;53.236;6.550;2023-04-24T03:24:46;14.27;;;5.65;;
77724;SDS011;66892;53.236;6.550;2023-04-24T03:27:12;14.60;;;6.05;;
77724;SDS011;66892;53.236;6.550;2023-04-24T03:29:38;16.92;;;6.65;;
77724;SDS011;66892;53.236;6.550;2023-04-24T03:32:04;22.42;;;7.25;;
77724;SDS011;66892;53.236;6.550;2023-04-24T03:34:30;17.13;;;6.68;;
77724;SDS011;66892;53.236;6.550;2023-04-24T03:36:56;17.65;;;6.95;;
77724;SDS011;66892;53.236;6.550;2023-04-24T03:39:23;17.35;;;6.90;;
77724;SDS011;66892;53.236;6.550;2023-04-24T03:41:50;18.42;;;7.25;;
77724;SDS011;66892;53.236;6.550;2023-04-24T03:44:16;18.67;;;7.57;;
77724;SDS011;66892;53.236;6.550;2023-04-24T03:46:42;20.05;;;8.07;;
77724;SDS011;66892;53.236;6.550;2023-04-24T03:49:08;19.42;;;7.85;;
77724;SDS011;66892;53.236;6.550;2023-04-24T03:51:34;19.10;;;7.50;;
77724;SDS011;66892;53.236;6.550;2023-04-24T03:54:00;21.85;;;8.73;;
77724;SDS011;66892;53.236;6.550;2023-04-24T03:56:28;23.92;;;9.35;;
77724;SDS011;66892;53.236;6.550;2023-04-24T03:58:54;21.55;;;9.07;;
77724;SDS011;66892;53.236;6.550;2023-04-24T04:01:20;24.02;;;10.07;;
77724;SDS011;66892;53.236;6.550;2023-04-24T04:03:47;26.63;;;11.00;;
77724;SDS011;66892;53.236;6.550;2023-04-24T04:06:13;25.58;;;11.02;;
77724;SDS011;66892;53.236;6.550;2023-04-24T04:08:39;29.40;;;11.43;;
77724;SDS011;66892;53.236;6.550;2023-04-24T04:11:05;26.88;;;11.93;;
77724;SDS011;66892;53.236;6.550;2023-04-24T04:13:32;28.30;;;12.45;;
77724;SDS011;66892;53.236;6.550;2023-04-24T04:15:58;27.92;;;12.05;;
77724;SDS011;66892;53.236;6.550;2023-04-24T04:18:24;27.92;;;12.45;;
77724;SDS011;66892;53.236;6.550;2023-04-24T04:20:50;27.85;;;11.98;;
77724;SDS011;66892;53.236;6.550;2023-04-24T04:23:17;30.50;;;12.60;;
77724;SDS011;66892;53.236;6.550;2023-04-24T04:25:43;27.27;;;11.38;;
77724;SDS011;66892;53.236;6.550;2023-04-24T04:28:09;25.60;;;12.13;;
77724;SDS011;66892;53.236;6.550;2023-04-24T04:30:36;29.75;;;11.55;;
77724;SDS011;66892;53.236;6.550;2023-04-24T04:33:03;29.35;;;12.60;;
77724;SDS011;66892;53.236;6.550;2023-04-24T04:35:29;26.20;;;11.80;;
77724;SDS011;66892;53.236;6.550;2023-04-24T04:37:55;23.75;;;10.20;;
77724;SDS011;66892;53.236;6.550;2023-04-24T04:40:24;23.88;;;11.02;;
77724;SDS011;66892;53.236;6.550;2023-04-24T04:42:50;27.50;;;11.63;;
77724;SDS011;66892;53.236;6.550;2023-04-24T04:45:18;22.63;;;10.48;;
77724;SDS011;66892;53.236;6.550;2023-04-24T04:47:45;23.30;;;10.30;;
77724;SDS011;66892;53.236;6.550;2023-04-24T04:50:12;23.20;;;10.43;;
77724;SDS011;66892;53.236;6.550;2023-04-24T04:52:38;23.10;;;9.95;;
77724;SDS011;66892;53.236;6.550;2023-04-24T04:55:04;22.00;;;9.57;;
77724;SDS011;66892;53.236;6.550;2023-04-24T04:57:30;19.75;;;8.85;;
77724;SDS011;66892;53.236;6.550;2023-04-24T04:59:56;19.40;;;8.93;;
77724;SDS011;66892;53.236;6.550;2023-04-24T05:02:22;23.17;;;9.13;;
77724;SDS011;66892;53.236;6.550;2023-04-24T05:04:50;22.90;;;8.48;;
77724;SDS011;66892;53.236;6.550;2023-04-24T05:07:16;16.15;;;6.55;;
77724;SDS011;66892;53.236;6.550;2023-04-24T05:09:42;14.90;;;5.70;;
77724;SDS011;66892;53.236;6.550;2023-04-24T05:12:09;14.68;;;5.70;;
77724;SDS011;66892;53.236;6.550;2023-04-24T05:14:35;14.43;;;5.63;;
77724;SDS011;66892;53.236;6.550;2023-04-24T05:17:01;12.45;;;5.43;;
77724;SDS011;66892;53.236;6.550;2023-04-24T05:19:28;14.10;;;5.32;;
77724;SDS011;66892;53.236;6.550;2023-04-24T05:21:55;12.13;;;4.85;;
77724;SDS011;66892;53.236;6.550;2023-04-24T05:24:21;13.75;;;5.97;;
77724;SDS011;66892;53.236;6.550;2023-04-24T05:26:47;12.63;;;5.30;;
77724;SDS011;66892;53.236;6.550;2023-04-24T05:29:13;14.18;;;5.10;;
77724;SDS011;66892;53.236;6.550;2023-04-24T05:31:39;12.15;;;4.57;;
77724;SDS011;66892;53.236;6.550;2023-04-24T05:34:05;12.80;;;5.78;;
77724;SDS011;66892;53.236;6.550;2023-04-24T05:36:31;12.60;;;5.10;;
77724;SDS011;66892;53.236;6.550;2023-04-24T05:38:59;12.18;;;4.47;;
77724;SDS011;66892;53.236;6.550;2023-04-24T05:41:25;10.70;;;4.00;;
77724;SDS011;66892;53.236;6.550;2023-04-24T05:43:51;11.30;;;3.95;;
77724;SDS011;66892;53.236;6.550;2023-04-24T05:46:25;13.77;;;4.97;;
77724;SDS011;66892;53.236;6.550;2023-04-24T05:49:03;11.10;;;4.45;;
77724;SDS011;66892;53.236;6.550;2023-04-24T05:51:29;10.73;;;3.70;;
77724;SDS011;66892;53.236;6.550;2023-04-24T05:53:56;11.13;;;3.95;;
77724;SDS011;66892;53.236;6.550;2023-04-24T05:56:23;11.07;;;4.22;;
77724;SDS011;66892;53.236;6.550;2023-04-24T05:58:49;11.23;;;4.75;;
77724;SDS011;66892;53.236;6.550;2023-04-24T06:01:15;11.98;;;4.20;;
77724;SDS011;66892;53.236;6.550;2023-04-24T06:03:42;11.52;;;4.38;;
77724;SDS011;66892;53.236;6.550;2023-04-24T06:06:08;10.73;;;4.53;;
77724;SDS011;66892;53.236;6.550;2023-04-24T06:08:34;12.20;;;4.80;;
77724;SDS011;66892;53.236;6.550;2023-04-24T06:11:00;12.80;;;4.80;;
77724;SDS011;66892;53.236;6.550;2023-04-24T06:13:28;12.40;;;4.53;;
77724;SDS011;66892;53.236;6.550;2023-04-24T06:15:54;12.93;;;4.90;;
77724;SDS011;66892;53.236;6.550;2023-04-24T06:18:20;11.80;;;5.18;;
77724;SDS011;66892;53.236;6.550;2023-04-24T06:20:46;16.83;;;7.90;;
77724;SDS011;66892;53.236;6.550;2023-04-24T06:23:12;16.13;;;7.40;;
77724;SDS011;66892;53.236;6.550;2023-04-24T06:25:38;15.90;;;7.05;;
77724;SDS011;66892;53.236;6.550;2023-04-24T06:28:04;18.73;;;7.60;;
77724;SDS011;66892;53.236;6.550;2023-04-24T06:30:32;17.80;;;7.97;;
77724;SDS011;66892;53.236;6.550;2023-04-24T06:32:58;19.02;;;8.10;;
77724;SDS011;66892;53.236;6.550;2023-04-24T06:35:24;15.70;;;6.95;;
77724;SDS011;66892;53.236;6.550;2023-04-24T06:37:50;14.90;;;7.10;;
77724;SDS011;66892;53.236;6.550;2023-04-24T06:40:16;16.52;;;6.60;;
77724;SDS011;66892;53.236;6.550;2023-04-24T06:42:44;15.32;;;6.00;;
77724;SDS011;66892;53.236;6.550;2023-04-24T06:45:10;13.82;;;6.43;;
77724;SDS011;66892;53.236;6.550;2023-04-24T06:47:38;20.23;;;6.40;;
77724;SDS011;66892;53.236;6.550;2023-04-24T06:50:04;16.85;;;6.20;;
77724;SDS011;66892;53.236;6.550;2023-04-24T06:52:31;15.07;;;5.97;;
77724;SDS011;66892;53.236;6.550;2023-04-24T06:55:00;12.60;;;5.20;;
77724;SDS011;66892;53.236;6.550;2023-04-24T06:57:28;9.23;;;4.38;;
77724;SDS011;66892;53.236;6.550;2023-04-24T06:59:54;11.98;;;4.47;;
77724;SDS011;66892;53.236;6.550;2023-04-24T07:02:20;9.70;;;3.85;;
77724;SDS011;66892;53.236;6.550;2023-04-24T07:04:47;14.63;;;4.28;;
77724;SDS011;66892;53.236;6.550;2023-04-24T07:07:13;8.25;;;3.05;;
77724;SDS011;66892;53.236;6.550;2023-04-24T07:09:40;6.80;;;2.88;;
77724;SDS011;66892;53.236;6.550;2023-04-24T07:12:10;9.65;;;2.72;;
77724;SDS011;66892;53.236;6.550;2023-04-24T07:14:37;6.85;;;2.83;;
77724;SDS011;66892;53.236;6.550;2023-04-24T07:17:03;12.05;;;3.20;;
77724;SDS011;66892;53.236;6.550;2023-04-24T07:19:31;7.15;;;2.97;;
77724;SDS011;66892;53.236;6.550;2023-04-24T07:21:58;10.57;;;3.28;;
77724;SDS011;66892;53.236;6.550;2023-04-24T07:24:24;9.45;;;3.10;;
77724;SDS011;66892;53.236;6.550;2023-04-24T07:26:50;9.80;;;3.17;;
77724;SDS011;66892;53.236;6.550;2023-04-24T07:29:17;13.18;;;3.88;;
77724;SDS011;66892;53.236;6.550;2023-04-24T07:31:43;10.35;;;3.70;;
77724;SDS011;66892;53.236;6.550;2023-04-24T07:34:09;8.38;;;3.85;;
77724;SDS011;66892;53.236;6.550;2023-04-24T07:36:35;9.70;;;4.30;;
77724;SDS011;66892;53.236;6.550;2023-04-24T07:39:05;13.25;;;4.43;;
77724;SDS011;66892;53.236;6.550;2023-04-24T07:41:31;13.75;;;4.38;;
77724;SDS011;66892;53.236;6.550;2023-04-24T07:43:57;10.32;;;3.95;;
77724;SDS011;66892;53.236;6.550;2023-04-24T07:46:23;12.38;;;4.05;;
77724;SDS011;66892;53.236;6.550;2023-04-24T07:48:50;8.93;;;4.10;;
77724;SDS011;66892;53.236;6.550;2023-04-24T07:51:16;11.73;;;3.83;;
77724;SDS011;66892;53.236;6.550;2023-04-24T07:53:42;13.80;;;3.45;;
77724;SDS011;66892;53.236;6.550;2023-04-24T07:56:10;17.13;;;4.15;;
77724;SDS011;66892;53.236;6.550;2023-04-24T07:58:36;14.80;;;5.45;;
77724;SDS011;66892;53.236;6.550;2023-04-24T08:01:02;15.45;;;5.93;;
77724;SDS011;66892;53.236;6.550;2023-04-24T08:03:28;21.73;;;7.07;;
77724;SDS011;66892;53.236;6.550;2023-04-24T08:05:54;23.42;;;7.63;;
77724;SDS011;66892;53.236;6.550;2023-04-24T08:08:21;26.88;;;8.38;;
77724;SDS011;66892;53.236;6.550;2023-04-24T08:10:48;23.98;;;8.63;;
77724;SDS011;66892;53.236;6.550;2023-04-24T08:13:16;36.15;;;10.25;;
77724;SDS011;66892;53.236;6.550;2023-04-24T08:15:42;33.83;;;10.18;;
77724;SDS011;66892;53.236;6.550;2023-04-24T08:18:08;38.58;;;11.73;;
77724;SDS011;66892;53.236;6.550;2023-04-24T08:20:34;38.08;;;11.60;;
77724;SDS011;66892;53.236;6.550;2023-04-24T08:23:00;35.30;;;13.30;;
77724;SDS011;66892;53.236;6.550;2023-04-24T08:25:26;42.50;;;11.98;;
77724;SDS011;66892;53.236;6.550;2023-04-24T08:27:52;40.03;;;13.10;;
77724;SDS011;66892;53.236;6.550;2023-04-24T08:30:20;44.25;;;11.95;;
77724;SDS011;66892;53.236;6.550;2023-04-24T08:32:46;41.53;;;12.10;;
77724;SDS011;66892;53.236;6.550;2023-04-24T08:35:13;36.45;;;11.95;;
77724;SDS011;66892;53.236;6.550;2023-04-24T08:37:39;35.45;;;12.48;;
77724;SDS011;66892;53.236;6.550;2023-04-24T08:40:06;35.83;;;12.02;;
77724;SDS011;66892;53.236;6.550;2023-04-24T08:42:37;34.42;;;12.95;;
77724;SDS011;66892;53.236;6.550;2023-04-24T08:45:05;27.85;;;10.13;;
77724;SDS011;66892;53.236;6.550;2023-04-24T08:47:33;28.58;;;10.23;;
77724;SDS011;66892;53.236;6.550;2023-04-24T08:50:00;44.05;;;11.90;;
77724;SDS011;66892;53.236;6.550;2023-04-24T08:52:28;29.70;;;10.32;;
77724;SDS011;66892;53.236;6.550;2023-04-24T08:54:55;35.28;;;12.27;;
77724;SDS011;66892;53.236;6.550;2023-04-24T08:57:22;26.67;;;9.98;;
77724;SDS011;66892;53.236;6.550;2023-04-24T08:59:49;27.13;;;9.68;;
77724;SDS011;66892;53.236;6.550;2023-04-24T09:02:16;27.80;;;10.50;;
77724;SDS011;66892;53.236;6.550;2023-04-24T09:04:44;28.60;;;10.88;;
77724;SDS011;66892;53.236;6.550;2023-04-24T09:07:11;32.40;;;11.73;;
77724;SDS011;66892;53.236;6.550;2023-04-24T09:09:38;34.38;;;10.77;;
77724;SDS011;66892;53.236;6.550;2023-04-24T09:12:04;34.70;;;12.10;;
77724;SDS011;66892;53.236;6.550;2023-04-24T09:14:30;33.63;;;11.32;;
77724;SDS011;66892;53.236;6.550;2023-04-24T09:16:57;31.05;;;9.60;;
77724;SDS011;66892;53.236;6.550;2023-04-24T09:19:23;34.72;;;12.00;;
77724;SDS011;66892;53.236;6.550;2023-04-24T09:21:50;28.48;;;10.13;;
77724;SDS011;66892;53.236;6.550;2023-04-24T09:24:19;26.98;;;9.55;;
77724;SDS011;66892;53.236;6.550;2023-04-24T09:26:48;28.80;;;10.20;;
77724;SDS011;66892;53.236;6.550;2023-04-24T09:29:15;21.30;;;9.40;;
77724;SDS011;66892;53.236;6.550;2023-04-24T09:31:44;22.48;;;8.35;;
77724;SDS011;66892;53.236;6.550;2023-04-24T09:34:12;17.45;;;7.15;;
77724;SDS011;66892;53.236;6.550;2023-04-24T09:36:38;23.55;;;7.65;;
77724;SDS011;66892;53.236;6.550;2023-04-24T09:39:08;22.85;;;8.60;;
77724;SDS011;66892;53.236;6.550;2023-04-24T09:41:43;22.35;;;9.10;;
77724;SDS011;66892;53.236;6.550;2023-04-24T09:44:11;26.75;;;8.50;;
77724;SDS011;66892;53.236;6.550;2023-04-24T09:46:38;23.95;;;8.10;;
77724;SDS011;66892;53.236;6.550;2023-04-24T09:49:07;22.20;;;7.70;;
77724;SDS011;66892;53.236;6.550;2023-04-24T09:54:02;25.58;;;7.78;;
77724;SDS011;66892;53.236;6.550;2023-04-24T09:56:31;23.65;;;7.28;;
77724;SDS011;66892;53.236;6.550;2023-04-24T09:59:03;17.02;;;5.78;;
77724;SDS011;66892;53.236;6.550;2023-04-24T10:01:30;15.50;;;5.45;;
77724;SDS011;66892;53.236;6.550;2023-04-24T10:03:57;17.90;;;5.40;;
77724;SDS011;66892;53.236;6.550;2023-04-24T10:06:24;17.08;;;5.57;;
77724;SDS011;66892;53.236;6.550;2023-04-24T10:08:57;17.08;;;5.40;;
77724;SDS011;66892;53.236;6.550;2023-04-24T10:11:24;15.88;;;5.10;;
77724;SDS011;66892;53.236;6.550;2023-04-24T10:13:52;18.95;;;4.68;;
77724;SDS011;66892;53.236;6.550;2023-04-24T10:16:19;15.63;;;4.25;;
77724;SDS011;66892;53.236;6.550;2023-04-24T10:18:48;12.60;;;4.45;;
77724;SDS011;66892;53.236;6.550;2023-04-24T10:21:14;10.52;;;4.38;;
77724;SDS011;66892;53.236;6.550;2023-04-24T10:23:40;11.38;;;4.25;;
77724;SDS011;66892;53.236;6.550;2023-04-24T10:26:08;9.60;;;4.15;;
77724;SDS011;66892;53.236;6.550;2023-04-24T10:28:35;8.25;;;3.25;;
77724;SDS011;66892;53.236;6.550;2023-04-24T10:31:03;12.27;;;4.10;;
77724;SDS011;66892;53.236;6.550;2023-04-24T10:33:30;11.02;;;4.25;;
77724;SDS011;66892;53.236;6.550;2023-04-24T10:35:56;12.50;;;4.18;;
77724;SDS011;66892;53.236;6.550;2023-04-24T10:38:24;10.77;;;3.90;;
77724;SDS011;66892;53.236;6.550;2023-04-24T10:40:57;10.07;;;3.15;;
77724;SDS011;66892;53.236;6.550;2023-04-24T10:43:23;10.00;;;3.63;;
77724;SDS011;66892;53.236;6.550;2023-04-24T10:46:01;9.48;;;3.72;;
77724;SDS011;66892;53.236;6.550;2023-04-24T10:48:31;9.38;;;3.50;;
77724;SDS011;66892;53.236;6.550;2023-04-24T10:50:58;8.73;;;3.15;;
77724;SDS011;66892;53.236;6.550;2023-04-24T10:53:24;14.02;;;3.30;;
77724;SDS011;66892;53.236;6.550;2023-04-24T10:55:57;10.82;;;3.08;;
77724;SDS011;66892;53.236;6.550;2023-04-24T10:58:24;13.15;;;3.47;;
77724;SDS011;66892;53.236;6.550;2023-04-24T11:01:00;8.10;;;3.08;;
77724;SDS011;66892;53.236;6.550;2023-04-24T11:03:28;11.35;;;3.45;;
77724;SDS011;66892;53.236;6.550;2023-04-24T11:05:56;10.80;;;3.25;;
77724;SDS011;66892;53.236;6.550;2023-04-24T11:08:32;11.18;;;3.38;;
77724;SDS011;66892;53.236;6.550;2023-04-24T11:11:06;11.70;;;3.67;;
77724;SDS011;66892;53.236;6.550;2023-04-24T11:16:27;20.77;;;3.55;;
77724;SDS011;66892;53.236;6.550;2023-04-24T11:19:02;11.85;;;2.80;;
77724;SDS011;66892;53.236;6.550;2023-04-24T11:21:39;9.70;;;2.60;;
77724;SDS011;66892;53.236;6.550;2023-04-24T11:27:06;12.48;;;2.70;;
77724;SDS011;66892;53.236;6.550;2023-04-24T11:29:40;8.45;;;2.80;;
77724;SDS011;66892;53.236;6.550;2023-04-24T11:32:24;10.73;;;2.90;;
77724;SDS011;66892;53.236;6.550;2023-04-24T11:34:54;8.95;;;2.72;;
77724;SDS011;66892;53.236;6.550;2023-04-24T11:37:21;10.57;;;2.55;;
77724;SDS011;66892;53.236;6.550;2023-04-24T11:39:52;9.43;;;2.85;;
77724;SDS011;66892;53.236;6.550;2023-04-24T11:42:19;11.48;;;2.75;;
77724;SDS011;66892;53.236;6.550;2023-04-24T11:44:46;12.93;;;3.10;;
77724;SDS011;66892;53.236;6.550;2023-04-24T11:47:13;17.38;;;3.25;;
77724;SDS011;66892;53.236;6.550;2023-04-24T11:49:39;11.10;;;2.78;;
77724;SDS011;66892;53.236;6.550;2023-04-24T11:52:07;8.65;;;2.67;;
77724;SDS011;66892;53.236;6.550;2023-04-24T11:54:33;8.20;;;2.53;;
77724;SDS011;66892;53.236;6.550;2023-04-24T11:56:59;8.60;;;2.00;;
77724;SDS011;66892;53.236;6.550;2023-04-24T11:59:30;11.10;;;2.10;;
77724;SDS011;66892;53.236;6.550;2023-04-24T12:02:01;8.10;;;2.25;;
77724;SDS011;66892;53.236;6.550;2023-04-24T12:04:27;11.07;;;2.42;;
77724;SDS011;66892;53.236;6.550;2023-04-24T12:09:44;9.50;;;2.40;;
77724;SDS011;66892;53.236;6.550;2023-04-24T12:12:11;9.85;;;2.60;;
77724;SDS011;66892;53.236;6.550;2023-04-24T12:14:41;12.15;;;2.30;;
77724;SDS011;66892;53.236;6.550;2023-04-24T12:17:08;13.60;;;3.00;;
77724;SDS011;66892;53.236;6.550;2023-04-24T12:19:34;7.63;;;2.80;;
77724;SDS011;66892;53.236;6.550;2023-04-24T12:22:01;9.30;;;2.67;;
77724;SDS011;66892;53.236;6.550;2023-04-24T12:24:28;5.60;;;2.05;;
77724;SDS011;66892;53.236;6.550;2023-04-24T12:26:56;13.18;;;2.33;;
77724;SDS011;66892;53.236;6.550;2023-04-24T12:29:22;11.18;;;2.30;;
77724;SDS011;66892;53.236;6.550;2023-04-24T12:31:49;5.80;;;1.90;;
77724;SDS011;66892;53.236;6.550;2023-04-24T12:34:18;8.20;;;1.95;;
77724;SDS011;66892;53.236;6.550;2023-04-24T12:36:45;9.27;;;2.40;;
77724;SDS011;66892;53.236;6.550;2023-04-24T12:39:14;7.72;;;2.97;;
77724;SDS011;66892;53.236;6.550;2023-04-24T12:41:49;5.28;;;1.98;;
77724;SDS011;66892;53.236;6.550;2023-04-24T12:44:28;4.57;;;1.48;;
77724;SDS011;66892;53.236;6.550;2023-04-24T12:46:55;5.07;;;1.70;;
77724;SDS011;66892;53.236;6.550;2023-04-24T12:49:21;7.18;;;1.65;;
77724;SDS011;66892;53.236;6.550;2023-04-24T12:51:47;4.05;;;1.60;;
77724;SDS011;66892;53.236;6.550;2023-04-24T12:54:13;8.70;;;1.77;;
77724;SDS011;66892;53.236;6.550;2023-04-24T12:56:39;6.72;;;2.00;;
77724;SDS011;66892;53.236;6.550;2023-04-24T12:59:06;6.13;;;1.63;;
77724;SDS011;66892;53.236;6.550;2023-04-24T13:01:32;4.18;;;1.73;;
77724;SDS011;66892;53.236;6.550;2023-04-24T13:03:58;10.45;;;1.85;;
77724;SDS011;66892;53.236;6.550;2023-04-24T13:06:25;10.80;;;1.67;;
77724;SDS011;66892;53.236;6.550;2023-04-24T13:08:51;5.93;;;1.73;;
77724;SDS011;66892;53.236;6.550;2023-04-24T13:11:17;6.00;;;1.52;;
77724;SDS011;66892;53.236;6.550;2023-04-24T13:13:44;6.53;;;1.50;;
77724;SDS011;66892;53.236;6.550;2023-04-24T13:16:11;7.70;;;1.80;;
77724;SDS011;66892;53.236;6.550;2023-04-24T13:18:37;8.65;;;1.73;;
77724;SDS011;66892;53.236;6.550;2023-04-24T13:21:03;9.77;;;2.40;;
77724;SDS011;66892;53.236;6.550;2023-04-24T13:23:29;8.88;;;1.85;;
77724;SDS011;66892;53.236;6.550;2023-04-24T13:25:55;8.18;;;1.73;;
77724;SDS011;66892;53.236;6.550;2023-04-24T13:28:23;7.28;;;1.67;;
77724;SDS011;66892;53.236;6.550;2023-04-24T13:30:50;6.63;;;1.30;;
77724;SDS011;66892;53.236;6.550;2023-04-24T13:33:17;5.15;;;1.27;;
77724;SDS011;66892;53.236;6.550;2023-04-24T13:35:43;5.88;;;1.65;;
77724;SDS011;66892;53.236;6.550;2023-04-24T13:38:09;9.10;;;1.50;;
77724;SDS011;66892;53.236;6.550;2023-04-24T13:40:35;4.43;;;1.13;;
77724;SDS011;66892;53.236;6.550;2023-04-24T13:43:01;4.72;;;1.20;;
77724;SDS011;66892;53.236;6.550;2023-04-24T13:45:28;5.57;;;1.30;;
77724;SDS011;66892;53.236;6.550;2023-04-24T13:47:54;6.00;;;1.48;;
77724;SDS011;66892;53.236;6.550;2023-04-24T13:50:22;8.23;;;1.45;;
77724;SDS011;66892;53.236;6.550;2023-04-24T13:52:48;4.65;;;1.40;;
77724;SDS011;66892;53.236;6.550;2023-04-24T13:55:14;6.80;;;1.00;;
77724;SDS011;66892;53.236;6.550;2023-04-24T13:57:40;5.25;;;1.55;;
77724;SDS011;66892;53.236;6.550;2023-04-24T14:00:06;6.68;;;1.58;;
77724;SDS011;66892;53.236;6.550;2023-04-24T14:02:35;5.68;;;1.52;;
77724;SDS011;66892;53.236;6.550;2023-04-24T14:05:02;13.48;;;2.10;;
77724;SDS011;66892;53.236;6.550;2023-04-24T14:07:30;8.75;;;2.67;;
77724;SDS011;66892;53.236;6.550;2023-04-24T14:09:57;10.32;;;2.20;;
77724;SDS011;66892;53.236;6.550;2023-04-24T14:12:23;9.88;;;2.83;;
77724;SDS011;66892;53.236;6.550;2023-04-24T14:14:49;8.57;;;2.63;;
77724;SDS011;66892;53.236;6.550;2023-04-24T14:17:15;11.38;;;2.65;;
77724;SDS011;66892;53.236;6.550;2023-04-24T14:19:41;12.32;;;2.90;;
77724;SDS011;66892;53.236;6.550;2023-04-24T14:22:07;5.78;;;2.45;;
77724;SDS011;66892;53.236;6.550;2023-04-24T14:24:35;11.73;;;2.75;;
77724;SDS011;66892;53.236;6.550;2023-04-24T14:27:01;10.30;;;2.67;;
77724;SDS011;66892;53.236;6.550;2023-04-24T14:29:27;10.15;;;2.67;;
77724;SDS011;66892;53.236;6.550;2023-04-24T14:31:53;9.82;;;3.30;;
77724;SDS011;66892;53.236;6.550;2023-04-24T14:34:19;9.63;;;2.92;;
77724;SDS011;66892;53.236;6.550;2023-04-24T14:36:45;10.63;;;2.67;;
77724;SDS011;66892;53.236;6.550;2023-04-24T14:39:11;12.27;;;2.90;;
77724;SDS011;66892;53.236;6.550;2023-04-24T14:41:39;12.23;;;2.60;;
77724;SDS011;66892;53.236;6.550;2023-04-24T14:44:05;13.02;;;3.28;;
77724;SDS011;66892;53.236;6.550;2023-04-24T14:46:32;13.88;;;2.63;;